Ear Falls, Canada
Current Conditions -  °F | °C
As of 12:28 PM on Thursday 27 Nov 2014 (Local Time) from CYRL Reporting Station
Few Clouds Few Clouds  
Wind Chill: -18°   Ceiling: Unl
Heat Index: -4°   Visibility: 15mi
Dew Point: -13°   Wind: 7mph
Humidity: 65%   Direction: 230°SW
Pressure: 30.3"   Gusts: NA
Location:  50.64°N, 93.23°W
Report Text: CYRL 271828Z 23006KT 15SM FEW240 M20/M25 A3030 RMK CI1 SLP310
Loading
Personal Weather Stations






























Interactive Weather Map New forecast layout! Learn more

10-Day Weather Forecast

Advertisements
Track Severe Weather on mobile